Time;durP1;ratioP1;P1;durP2;ratioP2;P2;SDS_P1;SDS_P2;PMS_P1;PMS_P2;Temp;Humidity;BMP_temperature;BMP_pressure;BME280_temperature;BME280_humidity;BME280_pressure;Samples;Min_cycle;Max_cycle;Signal;HPM_P1;HPM_P2
2021/09/23 00:35:38;;;;;;;6.72;3.67;;;;;;;12.27;74.29;100649.91;1080280;54;20022;-82
2021/09/23 00:36:39;;;;;;;8.10;3.80;;;;;;;12.28;74.19;100644.38;1088306;54;20027;-82
2021/09/23 01:21:26;;;;;;;6.57;3.67;;;;;;;11.62;75.06;100643.16;1088565;39;21312;-82
2021/09/23 01:22:28;;;;;;;7.90;3.95;;;;;;;11.64;74.50;100646.53;1110565;47;20015;-83
2021/09/23 01:23:38;;;;;;;6.53;3.70;;;;;;;11.62;75.12;100651.19;1088452;54;20011;-84
2021/09/23 02:17:42;;;;;;;6.30;4.03;;;;;;;10.53;77.52;100608.03;1097093;46;20033;-82
2021/09/23 02:19:07;;;;;;;6.35;4.10;;;;;;;10.52;77.58;100604.53;1172065;31;20757;-84
2021/09/23 02:20:11;;;;;;;9.07;4.15;;;;;;;10.45;77.44;100598.84;1088754;54;20023;-84
2021/09/23 02:50:22;;;;;;;5.70;4.10;;;;;;;10.41;76.91;100592.06;1088603;54;20090;-83
2021/09/23 02:51:26;;;;;;;6.88;4.68;;;;;;;10.33;76.99;100593.66;1088556;54;20045;-82
2021/09/23 02:52:37;;;;;;;8.63;4.30;;;;;;;10.23;77.51;100591.78;1088603;54;20018;-82
2021/09/23 02:53:43;;;;;;;6.93;4.57;;;;;;;10.13;77.98;100586.34;1088650;54;20030;-83
2021/09/23 02:54:45;;;;;;;7.72;5.05;;;;;;;10.08;78.18;100580.53;1088663;54;20022;-81
2021/09/23 03:37:42;;;;;;;8.55;5.18;;;;;;;9.88;78.70;100536.78;1088387;54;20045;-83
2021/09/23 03:38:44;;;;;;;8.10;5.38;;;;;;;9.91;78.88;100536.53;1088633;54;20018;-83
2021/09/23 03:40:28;;;;;;;8.82;5.47;;;;;;;9.92;78.77;100534.75;1088652;54;20023;-84
2021/09/23 03:52:23;;;;;;;9.32;5.85;;;;;;;9.86;78.25;100520.06;1079633;54;20053;-82
2021/09/23 03:53:27;;;;;;;10.05;5.45;;;;;;;9.79;78.44;100517.06;1088486;54;20039;-82
2021/09/23 03:54:34;;;;;;;10.18;5.32;;;;;;;9.73;78.77;100517.56;1088485;54;20070;-82
2021/09/23 03:55:35;;;;;;;8.20;5.70;;;;;;;9.76;78.71;100516.47;1088513;54;20037;-81
2021/09/23 03:56:41;;;;;;;7.70;5.10;;;;;;;9.71;78.99;100514.19;1088516;54;20026;-82
2021/09/23 03:57:44;;;;;;;8.40;4.95;;;;;;;9.72;78.95;100510.53;1088548;54;20030;-82
2021/09/23 03:58:48;;;;;;;8.27;5.45;;;;;;;9.73;78.62;100512.22;1088616;54;20659;-82
2021/09/23 03:59:53;;;;;;;8.65;5.00;;;;;;;9.73;78.79;100506.03;1088578;54;20026;-81
2021/09/23 04:00:55;;;;;;;7.05;4.85;;;;;;;9.68;78.94;100509.09;1088505;54;20059;-82
2021/09/23 04:01:59;;;;;;;8.25;5.28;;;;;;;9.63;79.12;100496.13;1089006;39;20535;-81
2021/09/23 04:03:04;;;;;;;7.07;4.70;;;;;;;9.74;78.84;100499.72;1088640;54;20014;-83
2021/09/23 04:04:05;;;;;;;10.63;5.20;;;;;;;9.81;78.61;100500.91;1088574;54;20026;-82
2021/09/23 04:05:13;;;;;;;10.70;5.03;;;;;;;9.80;78.58;100497.41;1088614;54;20018;-83
2021/09/23 04:06:15;;;;;;;8.23;5.25;;;;;;;9.81;78.62;100498.22;1088596;54;20022;-81
2021/09/23 04:07:20;;;;;;;8.10;5.13;;;;;;;9.87;78.36;100489.69;1088546;54;20018;-82
2021/09/23 04:08:22;;;;;;;7.72;5.20;;;;;;;9.89;78.13;100498.44;1088565;54;20026;-82
2021/09/23 04:09:35;;;;;;;7.88;4.63;;;;;;;10.02;77.88;100495.56;1088653;54;20031;-81
2021/09/23 04:10:37;;;;;;;6.82;4.35;;;;;;;10.05;77.62;100492.63;1088452;54;20041;-82
2021/09/23 04:55:40;;;;;;;13.75;6.78;;;;;;;9.10;80.57;100450.72;1087949;54;20026;-84
2021/09/23 04:56:48;;;;;;;9.63;6.13;;;;;;;9.07;80.50;100451.78;1088584;54;20042;-84
2021/09/23 05:12:06;;;;;;;9.27;5.43;;;;;;;9.07;79.88;100418.94;1087324;39;20586;-81
2021/09/23 05:13:08;;;;;;;9.73;5.90;;;;;;;9.07;79.69;100426.94;1087939;54;20041;-81
2021/09/23 05:14:16;;;;;;;8.82;5.80;;;;;;;9.10;79.94;100422.22;1087863;54;20042;-81
2021/09/23 05:15:20;;;;;;;9.75;6.15;;;;;;;9.09;79.85;100419.69;1095468;39;20504;-81
2021/09/23 05:16:26;;;;;;;10.35;6.28;;;;;;;9.06;79.86;100420.78;1088003;54;20018;-81
2021/09/23 05:17:27;;;;;;;9.45;6.72;;;;;;;9.04;80.15;100430.72;1087939;54;20045;-80
2021/09/23 05:18:31;;;;;;;10.75;7.95;;;;;;;9.00;80.17;100429.25;1088284;46;20040;-81
2021/09/23 05:19:33;;;;;;;10.85;8.43;;;;;;;8.93;80.09;100428.09;1087851;54;20052;-81
2021/09/23 05:20:38;;;;;;;10.80;8.45;;;;;;;8.94;80.30;100419.94;1088047;46;20079;-80
2021/09/23 05:21:41;;;;;;;13.88;9.27;;;;;;;8.90;80.24;100416.69;1087927;54;20077;-82
2021/09/23 05:22:46;;;;;;;13.15;8.98;;;;;;;8.89;80.27;100419.47;1087838;54;20026;-81
2021/09/23 05:23:47;;;;;;;11.40;7.82;;;;;;;8.81;80.53;100419.25;1087891;54;20037;-81
2021/09/23 05:24:52;;;;;;;9.85;7.35;;;;;;;8.74;80.57;100424.25;1087938;54;20034;-80
2021/09/23 05:25:57;;;;;;;11.75;7.57;;;;;;;8.69;80.84;100418.44;1087916;54;20018;-81
2021/09/23 05:26:59;;;;;;;8.85;6.07;;;;;;;8.72;80.59;100420.84;1087972;54;20030;-81
2021/09/23 05:28:06;;;;;;;10.07;6.07;;;;;;;8.67;80.72;100423.88;1090373;39;20674;-81
2021/09/23 05:29:10;;;;;;;8.07;5.20;;;;;;;8.72;80.50;100415.50;1088443;47;20038;-80
2021/09/23 05:30:25;;;;;;;7.55;5.22;;;;;;;8.66;80.62;100418.69;1091934;39;20488;-81
2021/09/23 05:31:27;;;;;;;9.00;6.10;;;;;;;8.70;80.54;100428.09;1087993;54;20053;-81
2021/09/23 05:32:31;;;;;;;7.60;5.45;;;;;;;8.78;80.44;100424.84;1087982;54;20035;-82
2021/09/23 05:33:32;;;;;;;8.48;5.38;;;;;;;8.84;80.27;100424.31;1087886;54;20026;-81
2021/09/23 05:34:37;;;;;;;7.95;5.45;;;;;;;8.84;80.07;100425.19;1087896;54;20030;-81
2021/09/23 05:35:42;;;;;;;7.60;5.50;;;;;;;8.97;79.62;100421.53;1088742;47;20035;-81
2021/09/23 05:36:44;;;;;;;7.82;5.32;;;;;;;9.10;79.20;100424.88;1087864;54;20034;-82
2021/09/23 05:37:49;;;;;;;7.18;4.38;;;;;;;9.16;78.78;100426.19;1087983;54;20034;-80
2021/09/23 05:38:50;;;;;;;7.63;3.97;;;;;;;9.23;78.54;100429.22;1087953;47;20046;-81
2021/09/23 05:39:55;;;;;;;7.05;4.80;;;;;;;9.31;78.42;100424.91;1087807;54;20054;-80
2021/09/23 05:41:01;;;;;;;9.20;5.32;;;;;;;9.30;78.40;100427.72;1087789;54;20034;-80
2021/09/23 05:42:04;;;;;;;8.57;4.85;;;;;;;9.40;78.10;100430.50;1088549;31;20631;-80
2021/09/23 05:43:13;;;;;;;8.48;4.55;;;;;;;9.46;77.76;100432.63;1087534;54;20026;-79
2021/09/23 05:44:15;;;;;;;9.63;4.78;;;;;;;9.45;77.76;100437.09;1088255;54;20034;-81
2021/09/23 05:45:27;;;;;;;15.90;6.22;;;;;;;9.42;77.67;100439.19;1088113;54;20015;-81
2021/09/23 05:46:43;;;;;;;12.68;5.32;;;;;;;9.39;77.87;100437.63;1092981;47;20022;-81
2021/09/23 05:47:48;;;;;;;9.82;5.78;;;;;;;9.38;77.90;100435.94;1087930;54;20026;-81
2021/09/23 05:48:49;;;;;;;11.35;5.38;;;;;;;9.46;77.89;100436.13;1087880;54;20106;-80
2021/09/23 05:49:54;;;;;;;8.10;5.35;;;;;;;9.51;78.04;100441.94;1087659;54;20042;-81
2021/09/23 05:50:58;;;;;;;10.48;4.78;;;;;;;9.57;77.68;100440.59;1088013;54;20023;-81
2021/09/23 05:51:59;;;;;;;10.43;4.75;;;;;;;9.62;77.76;100448.22;1088057;54;20050;-81
2021/09/23 05:53:03;;;;;;;13.15;6.30;;;;;;;9.61;78.04;100449.19;1087846;54;20022;-80
2021/09/23 05:54:05;;;;;;;12.45;5.78;;;;;;;9.66;77.92;100447.84;1087909;54;20014;-80
2021/09/23 05:55:11;;;;;;;12.90;5.97;;;;;;;9.66;77.86;100447.84;1088118;54;20026;-80
2021/09/23 05:56:15;;;;;;;11.90;6.35;;;;;;;9.68;78.21;100450.38;1088463;54;20034;-81
2021/09/23 05:57:25;;;;;;;12.32;5.78;;;;;;;9.68;77.94;100450.38;1088295;54;20038;-81
2021/09/23 05:58:32;;;;;;;9.55;4.97;;;;;;;9.75;78.13;100448.84;1088332;54;20021;-82
2021/09/23 05:59:34;;;;;;;8.40;5.43;;;;;;;9.80;77.75;100454.69;1091073;47;20031;-80
2021/09/23 06:00:44;;;;;;;12.02;5.75;;;;;;;9.86;77.61;100449.78;1088195;54;20599;-81
2021/09/23 06:01:54;;;;;;;8.10;5.47;;;;;;;9.91;77.52;100451.09;1088164;54;20022;-82
2021/09/23 06:03:00;;;;;;;13.10;5.55;;;;;;;9.90;77.67;100454.72;1088328;54;20094;-81
2021/09/23 06:04:04;;;;;;;10.35;5.90;;;;;;;9.98;77.32;100446.06;1088420;54;20022;-81
2021/09/23 06:05:25;;;;;;;11.57;5.85;;;;;;;9.99;77.43;100443.25;1096769;47;21146;-82
2021/09/23 06:06:27;;;;;;;10.90;5.50;;;;;;;10.04;77.39;100442.03;1088719;47;20177;-80
2021/09/23 06:07:46;;;;;;;10.02;5.10;;;;;;;10.08;77.12;100443.44;1087854;54;20035;-80
2021/09/23 06:08:48;;;;;;;10.15;4.93;;;;;;;10.13;76.84;100438.56;1092654;47;20084;-82
2021/09/23 06:09:55;;;;;;;13.98;5.07;;;;;;;10.10;76.94;100446.84;1089211;47;20094;-80
2021/09/23 06:10:59;;;;;;;11.18;5.78;;;;;;;10.10;76.68;100445.03;1089340;47;20627;-81
2021/09/23 06:12:10;;;;;;;11.63;5.35;;;;;;;10.09;76.89;100448.69;1087807;54;20069;-81
2021/09/23 06:13:12;;;;;;;12.82;6.65;;;;;;;10.05;77.09;100441.06;1087507;54;20054;-81
2021/09/23 06:14:24;;;;;;;9.00;5.38;;;;;;;10.05;77.10;100447.22;1087562;54;20038;-82
2021/09/23 06:15:28;;;;;;;11.38;5.30;;;;;;;10.05;76.96;100439.22;1087617;54;20038;-81
2021/09/23 06:16:37;;;;;;;12.27;5.20;;;;;;;10.07;76.86;100433.72;1087621;54;20039;-81
2021/09/23 06:17:42;;;;;;;7.50;4.53;;;;;;;10.07;76.63;100431.94;1088090;47;20038;-81
2021/09/23 06:18:57;;;;;;;11.98;5.75;;;;;;;10.02;76.63;100428.78;1087654;54;20042;-82
2021/09/23 06:19:58;;;;;;;9.25;5.53;;;;;;;10.01;76.59;100429.78;1087551;54;20096;-81
2021/09/23 06:21:03;;;;;;;14.73;6.40;;;;;;;10.03;76.42;100433.16;1088590;39;20548;-81
2021/09/23 06:22:07;;;;;;;10.02;5.28;;;;;;;10.04;76.38;100431.34;1087179;54;20590;-81
2021/09/23 06:23:08;;;;;;;8.27;5.72;;;;;;;10.02;76.63;100426.13;1087459;54;20039;-81
2021/09/23 06:24:13;;;;;;;7.85;5.80;;;;;;;10.04;76.32;100428.69;1087567;54;20026;-82
2021/09/23 06:25:18;;;;;;;10.13;6.00;;;;;;;10.06;76.27;100419.53;1087350;54;20034;-81
2021/09/23 06:26:20;;;;;;;9.30;5.65;;;;;;;10.06;76.53;100426.72;1087339;54;20039;-81
2021/09/23 06:27:30;;;;;;;9.48;5.53;;;;;;;10.07;76.63;100425.72;1087621;54;20027;-81
2021/09/23 06:28:33;;;;;;;9.48;5.60;;;;;;;10.09;76.40;100427.31;1087550;54;20106;-81
2021/09/23 06:29:40;;;;;;;7.78;5.15;;;;;;;10.14;76.36;100422.41;1087665;54;20042;-81
2021/09/23 06:30:44;;;;;;;8.93;4.28;;;;;;;10.17;76.17;100418.59;1089067;39;20650;-79
2021/09/23 06:31:47;;;;;;;7.60;4.93;;;;;;;10.21;76.49;100420.03;1087840;54;20039;-82
2021/09/23 06:32:56;;;;;;;8.63;5.40;;;;;;;10.10;76.66;100410.31;1087732;54;20018;-81
2021/09/23 06:34:00;;;;;;;11.25;6.35;;;;;;;10.02;76.97;100407.41;1087630;54;20095;-81
2021/09/23 06:35:02;;;;;;;13.70;6.75;;;;;;;9.95;77.30;100406.25;1088093;54;20038;-81
2021/09/23 06:36:23;;;;;;;10.43;7.00;;;;;;;9.97;77.61;100402.47;1088396;54;20030;-82
2021/09/23 06:37:25;;;;;;;12.98;7.13;;;;;;;10.02;77.08;100399.41;1088111;54;20573;-81
2021/09/23 06:38:45;;;;;;;9.63;6.18;;;;;;;10.18;76.79;100400.75;1088059;54;20022;-82
2021/09/23 06:39:49;;;;;;;11.43;5.65;;;;;;;10.27;76.55;100405.31;1088057;54;20038;-80
2021/09/23 06:40:55;;;;;;;10.02;5.68;;;;;;;10.29;76.70;100406.84;1087662;54;20355;-81
2021/09/23 06:41:58;;;;;;;9.23;5.90;;;;;;;10.34;76.70;100411.81;1087613;54;20102;-80
2021/09/23 06:43:03;;;;;;;10.63;5.43;;;;;;;10.42;76.38;100406.66;1087878;54;20607;-81
2021/09/23 06:44:05;;;;;;;11.90;5.80;;;;;;;10.49;76.11;100406.09;1087713;54;20038;-81
2021/09/23 06:45:16;;;;;;;17.10;5.70;;;;;;;10.52;75.99;100393.34;1087927;54;20138;-82
2021/09/23 06:46:20;;;;;;;12.55;6.45;;;;;;;10.60;76.00;100397.97;1087947;54;20046;-80
2021/09/23 06:47:31;;;;;;;10.25;5.65;;;;;;;10.69;75.58;100394.50;1087782;54;20089;-81
2021/09/23 06:48:32;;;;;;;9.35;5.22;;;;;;;10.71;75.55;100395.22;1087775;54;20069;-81
2021/09/23 06:49:38;;;;;;;11.32;5.07;;;;;;;10.79;75.63;100385.66;1088032;47;20034;-80
2021/09/23 06:50:40;;;;;;;11.05;5.68;;;;;;;10.82;75.59;100390.72;1089105;39;20508;-80
2021/09/23 06:51:44;;;;;;;14.38;6.90;;;;;;;10.88;75.50;100391.03;1090198;39;20465;-81
2021/09/23 06:52:46;;;;;;;12.73;5.85;;;;;;;10.92;75.13;100389.75;1087643;54;20042;-78
2021/09/23 06:53:52;;;;;;;10.73;5.88;;;;;;;11.01;75.05;100396.09;1087767;54;20048;-80
2021/09/23 06:54:56;;;;;;;11.15;6.47;;;;;;;11.04;75.06;100386.94;1087751;54;20070;-81
2021/09/23 06:56:20;;;;;;;11.27;5.78;;;;;;;11.05;74.98;100392.16;1089019;46;20038;-81
2021/09/23 06:57:22;;;;;;;11.30;5.72;;;;;;;11.03;75.26;100385.25;1087897;54;20043;-81
2021/09/23 06:58:26;;;;;;;14.18;6.80;;;;;;;11.10;75.24;100383.72;1087958;54;20034;-80
2021/09/23 06:59:27;;;;;;;10.48;6.22;;;;;;;11.14;74.89;100378.94;1087957;54;20050;-80
2021/09/23 07:00:53;;;;;;;10.48;6.22;;;;;;;11.12;75.14;100386.25;1087784;54;20034;-80
2021/09/23 07:01:55;;;;;;;13.32;6.75;;;;;;;11.15;74.92;100381.47;1087700;54;20761;-80
2021/09/23 07:03:01;;;;;;;12.45;5.30;;;;;;;11.28;74.83;100383.88;1087869;54;20070;-81
2021/09/23 07:04:03;;;;;;;11.48;6.03;;;;;;;11.27;74.96;100384.00;1089765;39;20523;-80
2021/09/23 07:05:19;;;;;;;11.88;7.15;;;;;;;11.21;74.73;100386.25;1087862;54;20094;-81
2021/09/23 07:06:20;;;;;;;11.68;7.25;;;;;;;11.30;75.17;100386.38;1088078;54;20047;-80
2021/09/23 07:07:24;;;;;;;11.63;6.75;;;;;;;11.27;75.19;100387.53;1087792;54;20033;-79
2021/09/23 07:08:26;;;;;;;11.02;6.00;;;;;;;11.34;74.97;100395.84;1087865;54;20019;-81
2021/09/23 07:09:44;;;;;;;12.35;7.38;;;;;;;11.38;74.93;100395.41;1088237;46;20612;-80
2021/09/23 07:10:49;;;;;;;10.55;6.65;;;;;;;11.43;74.87;100392.31;1087906;54;20034;-80
2021/09/23 07:11:55;;;;;;;9.82;6.40;;;;;;;11.48;74.58;100387.38;1087946;54;20121;-81
2021/09/23 07:12:56;;;;;;;10.40;6.80;;;;;;;11.51;74.96;100391.63;1087456;54;20058;-81
2021/09/23 07:14:13;;;;;;;11.35;6.50;;;;;;;11.50;74.76;100397.94;1088052;54;20054;-81
2021/09/23 07:15:15;;;;;;;11.63;6.40;;;;;;;11.49;74.83;100393.56;1087471;54;20031;-79
2021/09/23 07:16:25;;;;;;;11.70;7.03;;;;;;;11.40;74.70;100395.25;1087721;54;20031;-80
2021/09/23 07:17:29;;;;;;;10.57;6.22;;;;;;;11.46;74.77;100400.06;1090261;39;20446;-80
2021/09/23 07:18:34;;;;;;;10.65;6.30;;;;;;;11.46;74.87;100393.84;1087472;54;20026;-79
2021/09/23 07:19:36;;;;;;;9.73;5.57;;;;;;;11.65;74.37;100404.53;1087502;54;20039;-80
2021/09/23 07:20:53;;;;;;;8.20;5.60;;;;;;;11.76;73.36;100402.69;1087484;54;20119;-81
2021/09/23 07:21:57;;;;;;;9.50;5.32;;;;;;;11.88;73.65;100403.38;1087622;54;20591;-79
2021/09/23 07:23:02;;;;;;;7.38;4.88;;;;;;;11.98;73.09;100405.09;1087432;54;20030;-81
2021/09/23 07:24:04;;;;;;;7.57;4.40;;;;;;;12.08;73.05;100409.56;1087544;54;20034;-80
2021/09/23 07:25:11;;;;;;;6.85;4.05;;;;;;;12.12;72.90;100409.13;1090925;31;20509;-79
2021/09/23 07:26:13;;;;;;;8.38;4.68;;;;;;;12.22;72.54;100408.25;1087527;54;20034;-81
2021/09/23 07:27:20;;;;;;;7.05;4.80;;;;;;;12.27;72.36;100409.50;1087778;54;20034;-81
2021/09/23 07:28:21;;;;;;;9.10;5.20;;;;;;;12.35;72.28;100421.31;1087728;54;20018;-80
2021/09/23 07:29:27;;;;;;;6.65;4.47;;;;;;;12.41;72.08;100412.69;1087752;54;20030;-81
2021/09/23 07:30:28;;;;;;;6.85;4.80;;;;;;;12.43;72.30;100414.22;1087250;54;20094;-78
2021/09/23 07:31:53;;;;;;;7.00;4.85;;;;;;;12.46;71.50;100419.28;1088149;39;20441;-79
2021/09/23 07:32:57;;;;;;;8.65;4.72;;;;;;;12.56;71.87;100415.72;1087597;39;20433;-80
2021/09/23 07:34:27;;;;;;;6.78;4.30;;;;;;;12.64;71.64;100421.19;1088414;39;20445;-82
2021/09/23 07:35:31;;;;;;;6.10;4.20;;;;;;;12.74;71.24;100426.50;1087281;54;20030;-79
2021/09/23 07:36:39;;;;;;;7.30;5.10;;;;;;;12.76;71.21;100428.03;1087322;54;20033;-78
2021/09/23 07:37:40;;;;;;;9.00;5.10;;;;;;;12.79;71.28;100429.56;1086896;54;20042;-80
2021/09/23 07:38:55;;;;;;;8.05;5.30;;;;;;;12.80;71.12;100432.09;1087186;54;20037;-80
2021/09/23 07:39:57;;;;;;;6.90;4.82;;;;;;;12.90;70.93;100432.06;1087635;54;20037;-81
2021/09/23 07:41:08;;;;;;;6.38;4.55;;;;;;;12.96;70.77;100433.28;1087523;54;20042;-82
2021/09/23 07:42:12;;;;;;;9.05;5.30;;;;;;;12.94;70.87;100429.91;1088119;46;20034;-80
2021/09/23 07:43:19;;;;;;;10.30;5.93;;;;;;;12.74;71.24;100423.84;1087891;46;20049;-80
2021/09/23 07:44:24;;;;;;;9.65;6.40;;;;;;;12.63;71.38;100427.53;1087004;54;20031;-78
2021/09/23 07:45:25;;;;;;;11.73;6.20;;;;;;;12.68;71.42;100427.09;1087000;54;20040;-80
2021/09/23 07:46:30;;;;;;;9.63;6.07;;;;;;;12.79;71.18;100418.84;1087166;54;20050;-80
2021/09/23 07:47:36;;;;;;;8.20;5.72;;;;;;;13.00;70.60;100420.41;1087138;54;20069;-81
2021/09/23 07:48:41;;;;;;;6.85;5.20;;;;;;;13.14;70.51;100422.56;1087355;54;20046;-80
2021/09/23 07:49:46;;;;;;;8.48;5.43;;;;;;;13.25;70.27;100410.78;1087493;54;20046;-80
2021/09/23 07:50:49;;;;;;;9.48;5.43;;;;;;;13.33;69.85;100410.84;1087179;54;20046;-81
2021/09/23 07:51:53;;;;;;;8.75;5.43;;;;;;;13.44;69.58;100407.09;1086986;54;20041;-79
2021/09/23 07:52:54;;;;;;;8.30;5.25;;;;;;;13.49;69.65;100409.31;1087587;54;20046;-79
2021/09/23 07:54:01;;;;;;;8.80;5.25;;;;;;;13.59;69.13;100409.25;1087645;54;20060;-81
2021/09/23 07:55:04;;;;;;;8.00;5.45;;;;;;;13.73;68.89;100406.00;1087700;54;20019;-80
2021/09/23 07:56:08;;;;;;;7.05;4.57;;;;;;;13.87;68.44;100408.13;1087214;54;20038;-80
2021/09/23 07:57:14;;;;;;;8.75;4.95;;;;;;;14.04;68.25;100402.84;1087084;54;20038;-81
2021/09/23 07:58:15;;;;;;;6.38;4.53;;;;;;;14.16;67.76;100406.97;1087742;46;20038;-80
2021/09/23 07:59:19;;;;;;;7.07;4.47;;;;;;;14.30;67.76;100399.28;1086789;54;20034;-81
2021/09/23 08:00:24;;;;;;;10.40;4.60;;;;;;;14.46;67.38;100393.97;1087444;39;20456;-79
2021/09/23 08:01:26;;;;;;;7.03;4.43;;;;;;;14.63;67.03;100388.69;1087233;46;20047;-80
2021/09/23 08:02:30;;;;;;;10.15;5.05;;;;;;;14.78;66.70;100395.13;1086711;54;20069;-81
2021/09/23 08:03:37;;;;;;;8.98;4.68;;;;;;;14.97;65.65;100387.78;1088062;39;20441;-81
2021/09/23 08:04:41;;;;;;;8.90;5.10;;;;;;;15.13;65.66;100385.09;1087126;54;20061;-79
2021/09/23 08:05:45;;;;;;;9.98;5.38;;;;;;;15.17;65.55;100380.22;1086842;54;20038;-81
2021/09/23 08:06:47;;;;;;;9.65;5.53;;;;;;;15.21;65.40;100386.16;1086727;54;20031;-79
2021/09/23 08:07:51;;;;;;;8.23;5.13;;;;;;;15.44;65.05;100384.47;1086907;54;20035;-80
2021/09/23 08:08:56;;;;;;;7.63;4.95;;;;;;;15.67;64.46;100389.16;1086788;54;20065;-80
2021/09/23 08:10:01;;;;;;;6.97;4.50;;;;;;;15.93;63.99;100388.16;1086715;54;20046;-81
2021/09/23 08:11:05;;;;;;;9.70;4.63;;;;;;;16.09;63.35;100386.41;1086833;54;20038;-80
2021/09/23 08:12:11;;;;;;;12.63;5.47;;;;;;;16.09;62.89;100383.72;1086981;46;20057;-79
2021/09/23 08:13:12;;;;;;;7.57;4.22;;;;;;;16.44;62.48;100386.97;1086973;54;20037;-80
2021/09/23 08:14:17;;;;;;;8.70;4.25;;;;;;;16.71;61.96;100384.84;1087240;54;20035;-80
2021/09/23 08:15:22;;;;;;;6.95;3.97;;;;;;;16.94;61.14;100385.72;1087125;54;20110;-80
2021/09/23 08:16:23;;;;;;;8.65;4.55;;;;;;;17.12;60.54;100376.50;1087684;54;20063;-80
2021/09/23 08:17:27;;;;;;;10.55;4.72;;;;;;;17.28;60.18;100376.41;1087692;54;20041;-82
2021/09/23 08:18:29;;;;;;;8.32;4.50;;;;;;;17.39;59.93;100377.81;1087012;54;20031;-79
2021/09/23 08:19:38;;;;;;;6.20;4.60;;;;;;;17.64;58.64;100374.91;1087460;54;20049;-80
2021/09/23 08:20:43;;;;;;;9.15;5.70;;;;;;;17.64;58.28;100377.59;1087201;54;20033;-81
2021/09/23 08:21:47;;;;;;;10.35;6.18;;;;;;;17.71;57.91;100367.72;1087037;54;20027;-81
2021/09/23 08:22:51;;;;;;;9.55;5.45;;;;;;;17.70;57.86;100367.91;1087037;54;20042;-81
2021/09/23 08:23:53;;;;;;;11.27;5.60;;;;;;;17.81;57.84;100375.59;1087382;54;20042;-82
2021/09/23 08:24:57;;;;;;;9.57;5.10;;;;;;;17.96;57.17;100367.53;1087310;54;20045;-80
2021/09/23 08:26:01;;;;;;;9.07;5.45;;;;;;;17.97;57.61;100366.50;1087350;54;20035;-81
2021/09/23 08:27:07;;;;;;;10.00;4.53;;;;;;;17.96;56.87;100369.34;1087511;54;20026;-81
2021/09/23 08:28:12;;;;;;;7.00;4.50;;;;;;;18.06;57.15;100367.22;1087950;54;20034;-81
2021/09/23 08:29:16;;;;;;;9.98;5.32;;;;;;;18.17;56.97;100368.66;1087934;54;20038;-81
2021/09/23 08:30:37;;;;;;;11.38;4.93;;;;;;;18.04;56.11;100367.44;1087959;54;20038;-80
2021/09/23 08:31:43;;;;;;;10.30;5.82;;;;;;;18.00;57.06;100368.00;1087811;54;20046;-82
2021/09/23 08:32:44;;;;;;;10.68;6.00;;;;;;;18.02;57.07;100366.78;1088086;54;20069;-81
2021/09/23 08:33:57;;;;;;;11.05;5.53;;;;;;;18.09;55.29;100366.88;1087813;54;20033;-78
2021/09/23 08:35:06;;;;;;;10.30;5.00;;;;;;;18.29;56.07;100374.44;1087955;54;20038;-80
2021/09/23 08:36:07;;;;;;;8.82;4.93;;;;;;;18.19;56.04;100361.16;1088063;54;20654;-79
2021/09/23 08:37:21;;;;;;;10.13;5.10;;;;;;;17.84;54.95;100369.81;1087685;54;20034;-79
2021/09/23 08:38:25;;;;;;;7.82;4.63;;;;;;;17.98;55.37;100370.03;1091272;46;20014;-80
2021/09/23 08:39:29;;;;;;;10.48;4.05;;;;;;;18.30;54.72;100362.56;1086939;54;20046;-79
2021/09/23 08:40:31;;;;;;;6.53;4.32;;;;;;;18.10;54.56;100355.03;1087086;54;20029;-80
2021/09/23 08:41:35;;;;;;;9.25;4.22;;;;;;;17.96;54.62;100351.28;1086609;54;20053;-80
2021/09/23 08:42:37;;;;;;;14.02;4.18;;;;;;;18.54;53.43;100356.84;1087245;46;20039;-80
2021/09/23 08:43:41;;;;;;;7.57;3.83;;;;;;;18.73;53.25;100351.84;1086377;54;20030;-79
2021/09/23 08:44:46;;;;;;;7.10;3.88;;;;;;;18.57;53.21;100347.50;1086389;54;20094;-81
2021/09/23 08:45:50;;;;;;;11.38;4.32;;;;;;;18.43;53.27;100340.25;1085994;54;20046;-79
2021/09/23 08:46:51;;;;;;;8.30;4.78;;;;;;;18.36;53.22;100345.56;1086260;54;20045;-80
2021/09/23 08:47:56;;;;;;;8.05;3.60;;;;;;;18.36;52.86;100346.44;1089085;46;20046;-81
2021/09/23 08:48:58;;;;;;;8.07;3.70;;;;;;;18.39;52.95;100347.91;1086755;54;20070;-81
2021/09/23 08:50:08;;;;;;;10.32;3.97;;;;;;;18.32;52.27;100352.41;1086502;54;20034;-80
2021/09/23 08:51:13;;;;;;;9.93;4.05;;;;;;;18.20;52.63;100349.31;1087016;39;20547;-80
2021/09/23 08:52:17;;;;;;;9.88;3.75;;;;;;;18.40;52.25;100352.31;1086314;54;20057;-80
2021/09/23 08:53:21;;;;;;;6.93;3.40;;;;;;;18.79;51.76;100350.25;1086490;46;20047;-80
2021/09/23 08:54:23;;;;;;;8.10;3.60;;;;;;;19.05;51.03;100344.31;1085922;54;20038;-80
2021/09/23 08:55:28;;;;;;;7.20;3.13;;;;;;;19.46;50.12;100345.50;1086955;54;20030;-80
2021/09/23 08:56:30;;;;;;;10.77;3.67;;;;;;;19.43;50.21;100332.31;1086460;54;20065;-80
2021/09/23 08:57:35;;;;;;;8.18;3.95;;;;;;;19.41;49.87;100332.53;1087334;39;20565;-81
2021/09/23 08:58:38;;;;;;;7.35;3.67;;;;;;;19.00;50.10;100333.19;1086537;54;20046;-80
2021/09/23 08:59:42;;;;;;;6.45;3.50;;;;;;;18.88;50.54;100343.69;1087035;54;20049;-80
2021/09/23 09:01:05;;;;;;;7.13;3.70;;;;;;;18.34;50.54;100347.63;1086871;54;20015;-81
2021/09/23 09:02:23;;;;;;;11.00;4.25;;;;;;;18.54;51.05;100350.59;1086740;54;20049;-79
2021/09/23 09:03:25;;;;;;;8.38;3.97;;;;;;;18.36;51.19;100351.00;1087075;54;20065;-80
2021/09/23 09:04:34;;;;;;;6.95;3.92;;;;;;;18.95;49.83;100346.50;1087990;39;20632;-81
2021/09/23 09:05:41;;;;;;;5.88;3.75;;;;;;;19.26;49.55;100340.75;1087418;54;20082;-80
2021/09/23 09:06:52;;;;;;;6.63;3.40;;;;;;;19.58;48.77;100343.09;1087420;54;20039;-81
2021/09/23 09:08:01;;;;;;;;;;;;;;;19.35;48.68;100338.75;1088081;54;20118;-81
2021/09/23 09:09:06;;;;;;;7.80;3.95;;;;;;;18.92;49.63;100339.56;1086872;54;19942;-80
2021/09/23 09:10:12;;;;;;;9.93;4.70;;;;;;;19.20;49.73;100329.84;1086470;54;20053;-79
2021/09/23 09:11:17;;;;;;;5.55;3.78;;;;;;;19.62;48.65;100333.53;1087082;46;20034;-80
2021/09/23 09:12:19;;;;;;;8.73;4.35;;;;;;;19.35;49.30;100327.06;1086924;54;20049;-80
2021/09/23 09:13:23;;;;;;;7.75;3.70;;;;;;;19.39;49.54;100323.75;1086186;54;20591;-80
2021/09/23 09:14:30;;;;;;;7.75;3.78;;;;;;;19.20;49.32;100327.97;1086528;54;20057;-80
2021/09/23 09:15:33;;;;;;;6.68;3.60;;;;;;;19.36;49.15;100321.44;1087345;39;20768;-80
2021/09/23 09:16:40;;;;;;;12.30;3.67;;;;;;;19.69;49.01;100318.13;1086279;54;20038;-79
2021/09/23 09:17:44;;;;;;;7.57;3.78;;;;;;;19.33;48.85;100316.41;1086617;54;20042;-80
2021/09/23 09:18:51;;;;;;;7.00;3.92;;;;;;;19.08;49.62;100315.97;1086146;54;20042;-79
2021/09/23 09:19:59;;;;;;;8.77;4.03;;;;;;;19.59;48.81;100313.06;1087018;47;20631;-80
2021/09/23 09:21:11;;;;;;;7.13;3.58;;;;;;;20.02;47.78;100312.13;1087170;54;20094;-83
2021/09/23 09:22:18;;;;;;;7.68;3.88;;;;;;;20.34;47.36;100301.59;1086926;54;20035;-80
2021/09/23 09:23:19;;;;;;;6.40;3.22;;;;;;;20.53;46.87;100300.00;1087341;54;20046;-82
2021/09/23 09:24:29;;;;;;;6.75;4.05;;;;;;;20.48;47.31;100297.06;1087181;54;20042;-78
2021/09/23 09:25:33;;;;;;;7.55;4.05;;;;;;;20.04;47.95;100291.03;1086440;54;20552;-79
2021/09/23 09:26:40;;;;;;;9.98;4.50;;;;;;;20.15;47.52;100300.50;1086092;54;20042;-80
2021/09/23 09:27:44;;;;;;;6.63;4.22;;;;;;;20.47;47.02;100294.53;1087419;54;20034;-81
2021/09/23 09:28:49;;;;;;;6.45;4.00;;;;;;;20.45;46.76;100288.47;1086012;54;20094;-80
2021/09/23 09:29:54;;;;;;;9.35;4.45;;;;;;;20.19;47.03;100284.63;1086166;54;20061;-80
2021/09/23 09:30:59;;;;;;;11.13;4.35;;;;;;;20.30;47.37;100289.50;1085905;39;20262;-80
2021/09/23 09:32:01;;;;;;;7.45;3.83;;;;;;;20.78;46.17;100283.16;1086809;54;20045;-80
2021/09/23 09:33:07;;;;;;;5.85;3.30;;;;;;;21.04;46.12;100282.38;1087481;47;20034;-81
2021/09/23 09:34:11;;;;;;;8.18;4.72;;;;;;;20.54;46.37;100288.09;1085802;54;20046;-79
2021/09/23 09:35:19;;;;;;;8.30;4.88;;;;;;;20.41;46.83;100286.16;1086232;54;20038;-80
2021/09/23 09:36:36;;;;;;;8.23;4.82;;;;;;;20.10;46.87;100282.09;1086994;54;20043;-80
2021/09/23 09:37:42;;;;;;;9.10;4.88;;;;;;;19.88;47.69;100289.50;1086546;54;20037;-81